Time;durP1;ratioP1;P1;durP2;ratioP2;P2;SDS_P1;SDS_P2;PMS_P1;PMS_P2;Temp;Humidity;BMP_temperature;BMP_pressure;BME280_temperature;BME280_humidity;BME280_pressure;Samples;Min_cycle;Max_cycle;Signal;HPM_P1;HPM_P2
2022/08/02 00:01:00;;;;;;;3.30;3.20;;;20.00;99.90;;;20.36;56.77;101723.59;5093314;28;20048;-61
2022/08/02 00:03:29;;;;;;;2.97;2.88;;;20.10;99.90;;;20.40;56.94;101727.09;5093236;28;20066;-62
2022/08/02 00:05:58;;;;;;;3.08;2.97;;;20.10;99.90;;;20.35;56.97;101719.16;5093215;28;20493;-61
2022/08/02 00:08:26;;;;;;;2.95;2.85;;;20.00;99.90;;;20.19;57.50;101712.47;5093141;28;20048;-61
2022/08/02 00:10:56;;;;;;;2.53;2.42;;;19.80;99.90;;;19.99;59.62;101700.56;5074870;28;20458;-61
2022/08/02 00:13:24;;;;;;;2.95;2.85;;;19.60;99.90;;;20.00;58.85;101689.75;5093662;28;20051;-61
2022/08/02 00:15:52;;;;;;;2.75;2.65;;;19.60;99.90;;;19.97;58.63;101694.34;5093048;28;20048;-61
2022/08/02 00:18:21;;;;;;;2.92;2.83;;;19.60;99.90;;;20.05;58.59;101697.69;5093014;28;20477;-61
2022/08/02 00:20:49;;;;;;;3.15;3.05;;;19.60;99.90;;;20.25;57.76;101692.59;5093016;28;20131;-61
2022/08/02 00:23:18;;;;;;;3.30;3.20;;;19.80;99.90;;;20.35;57.38;101696.78;5092831;28;20135;-61
2022/08/02 00:25:46;;;;;;;3.08;2.97;;;19.90;99.90;;;20.29;57.48;101696.97;5074783;28;20139;-61
2022/08/02 00:28:25;;;;;;;2.92;2.83;;;19.90;99.90;;;19.97;57.74;101668.38;5093087;28;20051;-61
2022/08/02 00:30:56;;;;;;;3.03;2.92;;;19.80;99.90;;;20.28;57.51;101697.91;5074728;28;20052;-61
2022/08/02 00:33:25;;;;;;;2.85;2.75;;;19.80;99.90;;;20.40;57.18;101700.22;5074693;28;20500;-61
2022/08/02 00:36:13;;;;;;;2.90;2.80;;;20.00;99.90;;;20.36;57.03;101695.84;5092824;28;20054;-61
2022/08/02 00:38:42;;;;;;;3.22;3.13;;;20.00;99.90;;;20.19;58.64;101704.44;5092457;28;20388;-61
2022/08/02 00:41:16;;;;;;;3.67;3.47;;;19.80;99.90;;;20.09;58.12;101688.63;5074759;28;20130;-61
2022/08/02 00:43:49;;;;;;;2.70;2.60;;;19.70;99.90;;;19.95;58.11;101694.41;5092683;28;20044;-61
2022/08/02 00:46:18;;;;;;;3.03;2.92;;;19.60;99.90;;;19.94;57.96;101689.94;5092691;28;20043;-61
2022/08/02 00:48:47;;;;;;;2.67;2.58;;;19.50;99.90;;;19.91;58.15;101692.72;5092653;28;20044;-61
2022/08/02 00:51:17;;;;;;;4.38;3.60;;;19.50;99.90;;;19.72;58.28;101678.94;5093093;28;20063;-61
2022/08/02 00:53:45;;;;;;;3.33;3.22;;;19.40;99.90;;;19.67;57.91;101691.63;5092606;28;20076;-61
2022/08/02 00:56:14;;;;;;;3.78;3.58;;;19.30;99.90;;;19.57;58.30;101678.50;5092509;28;20473;-62
2022/08/02 00:58:42;;;;;;;3.50;3.25;;;19.20;99.90;;;19.26;59.18;101667.72;5092512;28;20055;-61
2022/08/02 01:01:12;;;;;;;3.97;3.67;;;19.00;99.90;;;19.31;58.94;101667.59;5094494;28;20097;-61
2022/08/02 01:03:40;;;;;;;3.15;3.05;;;18.90;99.90;;;19.21;59.18;101663.41;5096627;28;20090;-61
2022/08/02 01:06:08;;;;;;;3.03;2.92;;;18.80;99.90;;;19.21;59.03;101672.34;5096971;28;20503;-61
2022/08/02 01:08:39;;;;;;;3.25;3.15;;;18.80;99.90;;;19.14;59.47;101669.84;5096617;28;20050;-61
2022/08/02 01:11:08;;;;;;;2.95;2.85;;;18.80;99.90;;;19.10;59.42;101665.50;5096424;28;20051;-61
2022/08/02 01:13:37;;;;;;;2.90;2.80;;;18.70;99.90;;;18.99;59.89;101663.09;5078450;28;20044;-61
2022/08/02 01:16:16;;;;;;;3.03;2.92;;;18.60;99.90;;;19.03;59.87;101662.09;5096575;28;20105;-61
2022/08/02 01:18:51;;;;;;;3.47;3.28;;;18.60;99.90;;;18.82;60.41;101636.72;5096401;28;20040;-61
2022/08/02 01:22:14;;;;;;;2.60;2.50;;;18.60;99.90;;;19.00;60.56;101655.94;5095221;28;20131;-61
2022/08/02 01:25:15;;;;;;;2.75;2.65;;;18.60;99.90;;;18.92;60.98;101667.75;4994570;28;20458;-61
2022/08/02 01:28:19;;;;;;;3.10;2.90;;;18.60;99.90;;;18.88;60.87;101643.72;5096102;28;20568;-61
2022/08/02 01:30:53;;;;;;;2.95;2.78;;;18.60;99.90;;;18.95;61.24;101661.41;5096361;28;20130;-61
2022/08/02 01:33:25;;;;;;;2.95;2.85;;;18.50;99.90;;;19.00;61.37;101658.59;5096265;28;20043;-61
2022/08/02 01:35:56;;;;;;;3.40;3.30;;;18.60;99.90;;;18.91;61.82;101665.97;5096074;28;20127;-61
2022/08/02 01:38:31;;;;;;;3.08;2.97;;;18.50;99.90;;;18.93;61.55;101637.31;5095918;28;20064;-61
2022/08/02 01:41:02;;;;;;;3.40;3.28;;;18.60;99.90;;;19.08;61.39;101660.19;5096235;28;20048;-61
2022/08/02 01:43:35;;;;;;;3.00;2.80;;;18.60;99.90;;;19.12;61.69;101658.28;5095839;28;20075;-61
2022/08/02 01:46:05;;;;;;;2.95;2.85;;;18.70;99.90;;;18.89;61.68;101630.28;5095876;28;20093;-61
2022/08/02 01:48:35;;;;;;;3.42;3.22;;;18.70;99.90;;;19.09;61.76;101659.25;5095698;28;20119;-61
2022/08/02 01:51:05;;;;;;;3.10;3.00;;;18.70;99.90;;;19.12;61.59;101658.28;5096289;28;20442;-61
2022/08/02 01:53:35;;;;;;;2.50;2.40;;;18.70;99.90;;;19.19;61.79;101657.19;5095777;28;20048;-61
2022/08/02 01:56:05;;;;;;;3.25;3.15;;;18.70;99.90;;;19.23;61.80;101657.06;5095706;28;20639;-61
2022/08/02 01:58:38;;;;;;;2.60;2.50;;;18.80;99.90;;;19.30;61.45;101653.28;5095646;28;20063;-61
2022/08/02 02:01:09;;;;;;;3.08;2.97;;;18.90;99.90;;;19.36;61.27;101653.16;5095558;28;20135;-61
2022/08/02 02:03:43;;;;;;;2.85;2.75;;;19.00;99.90;;;19.23;61.51;101657.06;5095708;28;20048;-61
2022/08/02 02:06:12;;;;;;;3.20;3.10;;;18.90;99.90;;;19.19;61.59;101646.47;5095445;28;20046;-61
2022/08/02 02:08:43;;;;;;;2.88;2.78;;;18.90;99.90;;;19.25;61.52;101643.63;5095431;28;20134;-61
2022/08/02 02:11:12;;;;;;;3.10;3.00;;;18.90;99.90;;;19.33;61.43;101638.97;5095005;28;20119;-61
2022/08/02 02:14:04;;;;;;;3.85;3.65;;;19.00;99.90;;;19.28;61.53;101646.22;5095371;28;20071;-61
2022/08/02 02:16:34;;;;;;;2.65;2.55;;;19.00;99.90;;;19.24;61.39;101642.72;5095524;28;20568;-61
2022/08/02 02:19:05;;;;;;;2.95;2.85;;;18.90;99.90;;;19.34;61.06;101627.28;5095353;28;20056;-62
2022/08/02 02:21:34;;;;;;;3.72;3.53;;;19.00;99.90;;;19.63;60.39;101652.38;5095127;28;20509;-61
2022/08/02 02:24:04;;;;;;;2.70;2.60;;;19.30;99.90;;;19.71;59.91;101661.09;5095234;28;20123;-61
2022/08/02 02:26:41;;;;;;;3.72;3.53;;;19.40;99.90;;;19.30;59.73;101658.66;5095070;28;20489;-61
2022/08/02 02:29:22;;;;;;;3.47;3.38;;;19.20;99.90;;;19.24;59.84;101647.25;5095222;28;20055;-61
2022/08/02 02:31:53;;;;;;;2.83;2.72;;;18.90;99.90;;;19.08;59.71;101645.88;5095099;28;20048;-61
2022/08/02 02:34:28;;;;;;;3.40;3.30;;;18.80;99.90;;;19.02;58.83;101628.16;5095003;28;20039;-61
2022/08/02 02:37:01;;;;;;;3.38;3.28;;;18.80;99.90;;;18.25;58.25;101530.13;5076752;28;20515;-61
2022/08/02 02:39:32;;;;;;;3.05;2.95;;;18.60;99.90;;;18.50;58.60;101611.66;5094664;28;20113;-61
2022/08/02 02:42:02;;;;;;;;;;;18.40;99.90;;;18.73;58.77;101639.66;5095278;28;20040;-61
2022/08/02 02:44:33;;;;;;;2.90;2.80;;;18.40;99.90;;;18.65;58.60;101630.91;5094807;28;20011;-61
2022/08/02 02:47:02;;;;;;;;;;;18.40;99.90;;;18.67;58.35;101633.56;5077070;28;20139;-61
2022/08/02 02:49:33;;;;;;;2.70;2.60;;;18.40;99.90;;;18.77;57.93;101627.94;5094669;28;20373;-61
2022/08/02 02:52:03;;;;;;;3.08;2.97;;;18.40;99.90;;;18.56;57.94;101593.59;5076656;28;20051;-61
2022/08/02 02:54:33;;;;;;;3.25;3.15;;;18.50;99.90;;;18.79;58.00;101631.41;5094724;28;20036;-61
2022/08/02 02:57:04;;;;;;;;;;;18.50;99.90;;;18.86;57.77;101640.19;5094953;28;20458;-61
2022/08/02 02:59:35;;;;;;;2.92;2.83;;;18.60;99.90;;;18.89;57.75;101635.63;5094375;28;19950;-61
2022/08/02 03:02:18;;;;;;;3.42;3.33;;;18.60;99.90;;;18.90;58.05;101632.03;5094427;28;20146;-61
2022/08/02 03:04:47;;;;;;;3.15;3.05;;;18.60;99.90;;;18.96;57.75;101636.38;5094437;28;20101;-61
2022/08/02 03:07:26;;;;;;;2.95;2.85;;;18.60;99.90;;;18.96;57.68;101606.88;5094367;28;20036;-61
2022/08/02 03:09:54;;;;;;;3.58;3.47;;;18.80;99.90;;;19.11;57.37;101625.22;5094132;28;20528;-61
2022/08/02 03:12:24;;;;;;;2.70;2.60;;;18.80;99.90;;;19.20;57.19;101624.09;5094146;28;20048;-61
2022/08/02 03:15:04;;;;;;;3.30;3.20;;;18.90;99.90;;;19.25;57.08;101624.84;5094179;28;20489;-61
2022/08/02 03:17:41;;;;;;;3.05;2.95;;;19.00;99.90;;;19.34;56.74;101612.06;5094091;28;20048;-61
2022/08/02 03:20:14;;;;;;;3.40;3.22;;;19.10;99.90;;;19.29;56.65;101589.84;5094120;28;20085;-61
2022/08/02 03:22:43;;;;;;;3.30;3.20;;;19.10;99.90;;;19.47;56.58;101601.88;5093523;28;20056;-61
2022/08/02 03:25:14;;;;;;;2.83;2.72;;;19.20;99.90;;;19.49;56.46;101602.72;5093710;28;20085;-61
2022/08/02 03:27:42;;;;;;;2.80;2.70;;;19.20;99.90;;;19.37;57.14;101587.84;5094005;28;20111;-61
2022/08/02 03:30:14;;;;;;;2.88;2.78;;;19.10;99.90;;;19.34;57.06;101592.41;5094201;28;20060;-61
2022/08/02 03:32:47;;;;;;;3.03;2.92;;;19.00;99.90;;;19.25;57.20;101590.84;5094124;28;20129;-61
2022/08/02 03:35:18;;;;;;;3.10;3.00;;;19.00;99.90;;;19.32;57.19;101613.00;5094017;28;20056;-61
2022/08/02 03:37:54;;;;;;;3.17;3.08;;;19.00;99.90;;;19.25;57.79;101598.00;5093807;28;20044;-61
2022/08/02 03:40:23;;;;;;;3.33;3.22;;;19.00;99.90;;;19.29;57.56;101608.63;5075482;28;20055;-61
2022/08/02 03:42:51;;;;;;;3.05;2.95;;;19.00;99.90;;;19.27;58.44;101601.53;5093557;28;20066;-61
2022/08/02 03:45:21;;;;;;;3.35;3.25;;;19.00;99.90;;;19.15;57.95;101592.03;5093490;28;20503;-61
2022/08/02 03:47:50;;;;;;;3.28;3.17;;;19.00;99.90;;;18.91;58.75;101584.66;5093570;28;20076;-61
2022/08/02 03:50:21;;;;;;;3.10;3.00;;;18.70;99.90;;;18.78;59.47;101575.19;5075336;28;20496;-61
2022/08/02 03:52:50;;;;;;;3.78;3.58;;;18.50;99.90;;;18.59;60.08;101572.13;5093499;28;20051;-61
2022/08/02 03:55:19;;;;;;;3.67;3.47;;;18.30;99.90;;;18.27;61.18;101568.47;5093268;28;20055;-61
2022/08/02 03:57:48;;;;;;;3.05;2.95;;;18.00;99.90;;;18.26;61.79;101580.97;5093369;28;20135;-61
2022/08/02 04:00:22;;;;;;;3.80;3.58;;;17.90;99.90;;;18.19;61.97;101565.09;5093121;28;20523;-61
2022/08/02 04:02:51;;;;;;;3.50;3.30;;;17.90;99.90;;;18.25;62.02;101575.66;5093502;28;20046;-61
2022/08/02 04:05:20;;;;;;;3.28;3.17;;;17.90;99.90;;;18.35;61.93;101578.03;5093053;28;20070;-62
2022/08/02 04:07:49;;;;;;;2.55;2.45;;;18.00;99.90;;;18.43;62.64;101581.44;5075005;28;20082;-64
2022/08/02 04:13:22;;;;;;;2.53;2.42;;;18.20;99.90;;;18.64;61.34;101563.97;5092411;28;20051;-60
2022/08/02 04:16:01;;;;;;;3.08;2.97;;;18.40;99.90;;;18.86;60.91;101582.09;5093224;28;20071;-59
2022/08/02 04:18:37;;;;;;;3.13;3.03;;;18.50;99.90;;;18.92;60.80;101575.69;5093059;28;20093;-59
2022/08/02 04:21:07;;;;;;;3.10;3.00;;;18.60;99.90;;;18.99;60.68;101588.00;5092878;28;20479;-59
2022/08/02 04:23:38;;;;;;;3.00;2.90;;;18.70;99.90;;;18.86;60.77;101582.09;5093000;28;20101;-59
2022/08/02 04:26:06;;;;;;;;;;;18.60;99.90;;;18.60;61.62;101581.03;5093320;28;20048;-60
2022/08/02 04:28:38;;;;;;;3.28;3.17;;;18.40;99.90;;;18.26;62.75;101567.56;5092910;28;19965;-60
2022/08/02 04:31:09;;;;;;;2.92;2.83;;;18.00;99.90;;;18.16;63.23;101565.13;5092833;28;20052;-60
2022/08/02 04:33:38;;;;;;;2.90;2.80;;;17.80;99.90;;;18.16;63.51;101567.81;5092749;28;20125;-59
2022/08/02 04:36:07;;;;;;;3.40;3.30;;;17.70;99.90;;;18.22;63.34;101559.63;5092586;28;20032;-59
2022/08/02 04:38:35;;;;;;;2.80;2.70;;;17.90;99.90;;;18.27;63.27;101566.66;5092724;28;20558;-59
2022/08/02 04:41:04;;;;;;;3.83;3.65;;;18.00;99.90;;;18.25;63.30;101559.59;5092716;28;20455;-59
2022/08/02 04:43:32;;;;;;;3.25;3.15;;;17.90;99.90;;;18.08;64.07;101551.09;5092994;28;20052;-59
2022/08/02 04:46:02;;;;;;;2.97;2.88;;;17.80;99.90;;;18.08;64.56;101557.28;5092528;28;20040;-60
2022/08/02 04:48:31;;;;;;;3.67;3.47;;;17.70;99.90;;;17.99;64.89;101557.53;5093111;28;20382;-59
2022/08/02 04:51:00;;;;;;;4.67;4.37;;;17.60;99.90;;;17.94;65.21;101554.09;5092721;28;20039;-59
2022/08/02 04:53:28;;;;;;;3.25;3.15;;;17.50;99.90;;;18.01;65.39;101556.59;5092664;28;20571;-59
2022/08/02 04:55:56;;;;;;;3.17;3.08;;;17.60;99.90;;;18.07;65.56;101549.31;5092486;28;20040;-59
2022/08/02 04:58:25;;;;;;;2.42;2.33;;;17.70;99.90;;;18.20;65.34;101551.66;5092470;28;20135;-59
2022/08/02 05:01:08;;;;;;;3.08;2.97;;;17.80;99.90;;;18.38;65.02;101558.34;5092719;28;20433;-59
2022/08/02 05:03:38;;;;;;;3.30;3.20;;;17.90;99.90;;;18.46;65.07;101564.44;5092612;28;20138;-58
2022/08/02 05:06:07;;;;;;;3.30;3.20;;;18.10;99.90;;;18.51;65.50;101567.84;5092382;28;20397;-59
2022/08/02 05:08:47;;;;;;;3.53;3.35;;;18.20;99.90;;;18.41;66.31;101566.28;5092516;28;20047;-60
2022/08/02 05:11:20;;;;;;;2.97;2.88;;;18.20;99.90;;;18.47;66.70;101567.06;5092473;28;20048;-59
2022/08/02 05:13:49;;;;;;;3.00;2.90;;;18.20;99.90;;;18.64;66.85;101570.19;5092454;28;20048;-58
2022/08/02 05:16:26;;;;;;;3.10;3.00;;;18.30;99.90;;;18.78;66.83;101570.69;5092371;28;20461;-58
2022/08/02 05:19:01;;;;;;;3.25;3.15;;;18.50;99.90;;;18.75;66.36;101519.88;5092337;28;20044;-58
2022/08/02 05:21:30;;;;;;;2.85;2.75;;;18.80;99.90;;;19.15;66.19;101569.69;5092259;28;20064;-58
2022/08/02 05:23:59;;;;;;;3.20;3.10;;;18.90;99.90;;;19.33;66.19;101571.88;5092523;28;20036;-58
2022/08/02 05:26:27;;;;;;;2.95;2.85;;;19.00;99.90;;;19.42;66.33;101576.97;5092000;28;20131;-58
2022/08/02 05:28:55;;;;;;;2.90;2.80;;;19.10;99.90;;;19.62;66.14;101563.84;5092291;28;20048;-58
2022/08/02 05:31:24;;;;;;;3.13;3.03;;;19.30;99.90;;;19.65;66.91;101569.09;5092136;28;20497;-59
2022/08/02 05:33:52;;;;;;;3.03;2.92;;;19.50;99.90;;;19.70;66.89;101570.72;5092104;28;20486;-59
2022/08/02 05:36:22;;;;;;;2.80;2.70;;;19.50;99.90;;;19.50;67.57;101572.25;5092317;28;20444;-58
2022/08/02 05:38:51;;;;;;;2.80;2.70;;;19.40;99.90;;;19.57;68.20;101558.59;5092176;28;20552;-58
2022/08/02 05:41:26;;;;;;;3.00;2.90;;;19.30;99.90;;;19.79;68.41;101562.41;5092564;28;20040;-59
2022/08/02 05:43:55;;;;;;;2.67;2.58;;;19.50;99.90;;;19.91;68.23;101553.06;5092086;28;20075;-59
2022/08/02 05:46:23;;;;;;;2.78;2.67;;;19.70;99.90;;;20.28;68.03;101569.81;5092295;28;20159;-59
2022/08/02 05:48:52;;;;;;;3.10;3.00;;;20.00;99.90;;;20.47;67.44;101570.94;5095626;28;20122;-59
2022/08/02 05:51:26;;;;;;;2.63;2.53;;;20.20;99.90;;;20.62;67.62;101578.47;5095725;28;20416;-59
2022/08/02 05:54:08;;;;;;;3.17;3.08;;;20.40;99.90;;;20.82;66.71;101569.72;5095662;28;20509;-59
2022/08/02 05:56:46;;;;;;;2.53;2.42;;;20.60;99.90;;;21.00;67.49;101568.19;5095336;28;20040;-59
2022/08/02 05:59:33;;;;;;;2.65;2.55;;;20.70;99.90;;;21.12;67.93;101559.69;5095271;28;20044;-59
2022/08/02 06:02:05;;;;;;;2.70;2.60;;;20.90;99.90;;;21.28;68.54;101566.25;5095696;28;20404;-59
2022/08/02 06:04:49;;;;;;;2.50;2.40;;;21.10;99.90;;;21.46;68.51;101571.84;5095428;28;20560;-59
2022/08/02 06:07:19;;;;;;;3.38;3.28;;;21.20;99.90;;;21.56;68.59;101580.44;5095219;28;20044;-59
2022/08/02 06:09:49;;;;;;;2.55;2.45;;;21.30;99.90;;;21.65;69.06;101573.81;5095413;28;20070;-59
2022/08/02 06:12:19;;;;;;;2.50;2.40;;;21.40;99.90;;;21.72;69.64;101572.66;5095341;28;20478;-59
2022/08/02 06:14:49;;;;;;;2.40;2.30;;;21.50;99.90;;;21.87;70.51;101575.66;5095291;28;20436;-59
2022/08/02 06:17:22;;;;;;;2.33;2.22;;;21.60;99.90;;;21.97;71.30;101576.16;5095180;28;20520;-59
2022/08/02 06:19:53;;;;;;;2.65;2.55;;;21.70;99.90;;;22.10;72.11;101572.03;5095123;28;20048;-59
2022/08/02 06:22:27;;;;;;;2.25;2.15;;;21.80;99.90;;;22.21;72.72;101564.38;5095166;28;20044;-59
2022/08/02 06:25:05;;;;;;;2.75;2.65;;;21.90;99.90;;;22.30;73.98;101570.25;5095010;28;20382;-59
2022/08/02 06:27:55;;;;;;;2.90;2.80;;;22.00;99.90;;;22.35;75.22;101565.59;5095333;28;20421;-59
2022/08/02 06:30:23;;;;;;;2.97;2.88;;;22.00;99.90;;;22.45;75.77;101572.31;5094876;28;20044;-59
2022/08/02 06:32:53;;;;;;;2.58;2.47;;;22.10;99.90;;;22.60;75.99;101564.56;5094876;28;20058;-59
2022/08/02 06:35:21;;;;;;;2.58;2.47;;;22.30;99.90;;;22.70;76.20;101569.50;5094856;28;20074;-59
2022/08/02 06:37:57;;;;;;;3.55;3.35;;;22.40;99.90;;;22.81;76.18;101569.03;5094774;28;20056;-59
2022/08/02 06:40:31;;;;;;;2.40;2.30;;;22.50;99.90;;;22.84;76.05;101568.91;5095038;28;20060;-60
2022/08/02 06:43:11;;;;;;;2.75;2.65;;;22.50;99.90;;;22.93;75.72;101568.50;5076584;28;20048;-59
2022/08/02 06:45:41;;;;;;;2.50;2.40;;;22.60;99.90;;;22.99;75.61;101571.81;5094595;28;20131;-59
2022/08/02 06:48:10;;;;;;;2.50;2.40;;;22.60;99.90;;;23.08;75.63;101573.19;5094744;28;20048;-59
2022/08/02 06:50:40;;;;;;;2.85;2.75;;;22.70;99.90;;;23.17;75.36;101572.81;5094663;28;20046;-59
2022/08/02 06:53:10;;;;;;;;;;;22.80;99.90;;;23.32;75.36;101573.94;5094966;28;20123;-60
2022/08/02 06:55:39;;;;;;;2.90;2.80;;;22.90;99.90;;;23.38;74.52;101585.38;5094455;28;19920;-60
2022/08/02 06:58:12;;;;;;;2.50;2.40;;;23.10;99.90;;;23.42;74.21;101576.19;5076411;28;20124;-60
2022/08/02 07:00:42;;;;;;;2.55;2.45;;;23.10;99.90;;;23.44;73.53;101576.94;5076300;28;20044;-60
2022/08/02 07:03:11;;;;;;;2.45;2.35;;;23.20;99.90;;;23.51;73.73;101575.75;5094446;28;20071;-59
2022/08/02 07:05:40;;;;;;;8.35;4.28;;;23.20;99.90;;;23.59;73.29;101572.69;5094192;28;20447;-61
2022/08/02 07:08:10;;;;;;;1.83;1.80;;;23.30;99.90;;;23.70;73.87;101576.63;5076043;28;20079;-59
2022/08/02 07:10:38;;;;;;;3.50;3.30;;;23.40;99.90;;;23.79;73.32;101569.91;5094330;28;20135;-60
2022/08/02 07:13:06;;;;;;;2.35;2.25;;;23.50;99.90;;;23.91;72.84;101574.72;5094021;28;20555;-59
2022/08/02 07:15:34;;;;;;;2.15;2.05;;;23.60;99.90;;;24.02;72.41;101581.38;5094085;28;20124;-61
2022/08/02 07:18:03;;;;;;;2.85;2.75;;;23.70;99.90;;;24.12;70.91;101560.19;5093912;28;20040;-60
2022/08/02 07:20:32;;;;;;;2.40;2.30;;;23.80;99.90;;;24.24;70.33;101558.69;5093985;28;20072;-60
2022/08/02 07:23:01;;;;;;;3.90;3.65;;;23.90;99.90;;;24.06;70.57;101539.72;5075753;28;20098;-61
2022/08/02 07:25:30;;;;;;;2.47;2.38;;;23.90;99.90;;;24.19;69.58;101558.94;5094048;28;20052;-62
2022/08/02 07:28:19;;;;;;;2.28;2.17;;;23.90;99.90;;;24.28;69.00;101557.59;5094013;28;20050;-59
2022/08/02 07:30:52;;;;;;;2.00;1.90;;;23.90;99.90;;;24.26;68.43;101554.97;5093802;28;20089;-59
2022/08/02 07:33:20;;;;;;;2.50;2.40;;;24.00;99.90;;;24.40;69.08;101546.16;5093719;28;20048;-60
2022/08/02 07:36:08;;;;;;;2.47;2.38;;;24.10;99.90;;;24.26;68.57;101522.53;5093779;28;20134;-59
2022/08/02 07:38:50;;;;;;;2.33;2.22;;;24.20;99.90;;;24.59;68.92;101555.97;5093581;28;20044;-59
2022/08/02 07:41:21;;;;;;;2.25;2.15;;;24.20;99.90;;;24.66;68.08;101551.13;5093612;28;20047;-59
2022/08/02 07:43:50;;;;;;;3.00;2.90;;;24.40;99.90;;;24.79;67.67;101554.97;5093774;28;20465;-59
2022/08/02 07:46:18;;;;;;;11.15;4.72;;;24.50;99.90;;;24.68;67.60;101560.06;5093376;28;20693;-59
2022/08/02 07:48:48;;;;;;;2.50;2.40;;;24.50;99.90;;;24.72;68.74;101549.00;5093440;28;20058;-61
2022/08/02 07:51:16;;;;;;;3.80;3.60;;;24.50;99.90;;;24.79;67.65;101545.03;5093844;28;20043;-60
2022/08/02 07:53:45;;;;;;;2.03;1.92;;;24.50;99.90;;;24.78;67.44;101561.34;5093229;28;20115;-60
2022/08/02 07:56:19;;;;;;;2.10;2.00;;;24.50;99.90;;;24.74;67.39;101557.03;5093264;28;20087;-60
2022/08/02 07:58:48;;;;;;;2.00;1.90;;;24.50;99.90;;;24.85;66.83;101558.22;5075144;28;20044;-60
2022/08/02 08:01:17;;;;;;;2.03;1.93;;;24.60;99.90;;;24.90;66.51;101553.47;5093303;28;20043;-60
2022/08/02 08:03:46;;;;;;;2.03;1.92;;;24.60;99.90;;;24.80;66.87;101519.72;5075061;28;20086;-60
2022/08/02 08:06:14;;;;;;;2.10;2.00;;;24.70;99.90;;;25.07;66.25;101554.41;5093074;28;20070;-60
2022/08/02 08:08:43;;;;;;;2.25;2.15;;;24.70;99.90;;;25.14;66.09;101551.28;5092894;28;20048;-60
2022/08/02 08:11:11;;;;;;;2.20;2.10;;;24.80;99.90;;;25.19;66.02;101560.03;5092936;28;20113;-60
2022/08/02 08:13:40;;;;;;;2.63;2.53;;;24.90;99.90;;;25.18;64.88;101558.28;5093160;28;20047;-60
2022/08/02 08:16:10;;;;;;;2.10;2.00;;;24.90;99.90;;;25.20;64.22;101564.50;5092866;28;20595;-60
2022/08/02 08:18:38;;;;;;;2.20;2.10;;;24.90;99.90;;;25.09;65.04;101549.78;5092926;28;20130;-60
2022/08/02 08:21:06;;;;;;;2.25;2.13;;;24.80;99.90;;;25.12;64.86;101545.06;5092948;28;20078;-60
2022/08/02 08:23:35;;;;;;;2.10;2.00;;;24.80;99.90;;;25.18;64.58;101547.47;5074894;28;20048;-60
2022/08/02 08:26:04;;;;;;;2.20;2.10;;;24.90;99.90;;;25.31;64.93;101551.25;5092821;28;20134;-60
2022/08/02 08:28:32;;;;;;;2.10;2.00;;;25.00;99.90;;;25.46;64.67;101544.13;5092772;28;20131;-60
2022/08/02 08:31:00;;;;;;;13.50;6.78;;;25.10;99.90;;;25.47;64.54;101554.91;5074539;28;20465;-61
2022/08/02 08:33:30;;;;;;;2.60;2.50;;;25.20;99.90;;;25.44;62.56;101559.59;5074623;28;20036;-60
2022/08/02 08:35:58;;;;;;;2.93;2.83;;;25.20;99.90;;;25.46;62.11;101558.56;5092787;28;20051;-61
2022/08/02 08:38:30;;;;;;;2.10;2.00;;;25.10;99.90;;;25.53;62.45;101550.97;5092766;28;20286;-60
2022/08/02 08:40:58;;;;;;;2.38;2.28;;;25.20;99.90;;;25.59;62.37;101556.91;5092485;28;20062;-60
2022/08/02 08:43:26;;;;;;;2.10;2.00;;;25.30;99.90;;;25.73;62.32;101562.44;5092739;28;20131;-60
2022/08/02 08:45:55;;;;;;;2.92;2.80;;;25.40;99.90;;;25.53;62.68;101562.66;5092605;28;20131;-61
2022/08/02 08:48:25;;;;;;;2.22;2.13;;;25.30;99.90;;;25.04;61.43;101464.25;5092752;28;20131;-60
2022/08/02 08:51:08;;;;;;;1.80;1.80;;;25.30;99.90;;;25.66;61.24;101560.16;5092528;28;20501;-60
2022/08/02 08:53:42;;;;;;;2.25;2.15;;;25.30;99.90;;;25.41;61.17;101552.53;5092557;28;20111;-60
2022/08/02 08:56:12;;;;;;;19.45;8.00;;;25.20;99.90;;;25.55;61.34;101555.34;5092450;28;20105;-61
2022/08/02 08:58:46;;;;;;;2.35;2.25;;;25.20;99.90;;;25.46;60.96;101536.00;5092612;28;20135;-60
2022/08/02 09:01:15;;;;;;;1.90;1.80;;;25.30;99.90;;;25.60;59.69;101560.50;5074652;28;20147;-60
2022/08/02 09:03:45;;;;;;;2.30;2.20;;;25.30;99.90;;;25.67;59.43;101570.03;5092586;28;20128;-60
2022/08/02 09:06:15;;;;;;;2.40;2.30;;;25.40;99.90;;;25.70;59.29;101562.63;5092521;28;20036;-60
2022/08/02 09:08:44;;;;;;;2.30;2.20;;;25.40;99.90;;;25.74;58.27;101557.91;5092369;28;20485;-60
2022/08/02 09:11:14;;;;;;;2.10;2.00;;;25.50;99.90;;;25.80;57.66;101561.13;5092318;28;20044;-60
2022/08/02 09:13:49;;;;;;;;;;;25.50;99.90;;;25.83;57.84;101560.09;5092883;28;20071;-61
2022/08/02 09:16:30;;;;;;;2.88;2.70;;;25.50;99.90;;;25.84;58.46;101565.41;5092399;28;19928;-61
2022/08/02 09:18:59;;;;;;;2.25;2.15;;;25.50;99.90;;;25.96;57.69;101573.84;5092488;28;20063;-60
2022/08/02 09:21:38;;;;;;;2.10;2.00;;;25.60;99.90;;;26.09;57.43;101573.09;5074998;28;20087;-61
2022/08/02 09:24:17;;;;;;;2.50;2.40;;;25.70;99.90;;;26.03;57.64;101584.25;5096351;28;20075;-60
2022/08/02 09:26:47;;;;;;;2.33;2.23;;;25.70;99.90;;;25.96;57.38;101596.41;5096374;28;20064;-61
2022/08/02 09:29:17;;;;;;;2.22;2.13;;;25.70;99.90;;;25.80;58.20;101577.41;5077886;28;20529;-61
2022/08/02 09:31:48;;;;;;;1.70;1.70;;;25.50;99.90;;;25.75;58.72;101571.38;5096078;28;20050;-61
2022/08/02 09:34:17;;;;;;;2.30;2.20;;;25.40;99.90;;;25.77;59.07;101580.28;5096229;28;20043;-61
2022/08/02 09:36:48;;;;;;;2.42;2.33;;;25.40;99.90;;;25.73;58.76;101572.41;5096234;28;20040;-61
2022/08/02 09:39:25;;;;;;;2.10;2.00;;;25.40;99.90;;;25.72;58.37;101573.38;5095733;28;20052;-61
2022/08/02 09:42:09;;;;;;;2.38;2.28;;;25.40;99.90;;;25.61;58.96;101552.28;5095848;28;20131;-61
2022/08/02 09:44:37;;;;;;;2.00;1.90;;;25.30;99.90;;;25.75;57.99;101575.91;5095989;28;20142;-61
2022/08/02 09:47:15;;;;;;;2.00;1.90;;;25.40;99.90;;;25.57;57.74;101556.13;5095783;28;20374;-61
2022/08/02 09:49:46;;;;;;;2.58;2.47;;;25.40;99.90;;;25.82;58.51;101589.03;5095778;28;20032;-61
2022/08/02 09:52:28;;;;;;;2.00;1.90;;;25.40;99.90;;;25.92;58.49;101592.97;5095732;28;20044;-61
2022/08/02 09:55:12;;;;;;;2.20;2.10;;;25.50;99.90;;;25.94;57.88;101599.19;5095596;28;20067;-61
2022/08/02 09:57:40;;;;;;;2.40;2.30;;;25.60;99.90;;;26.07;58.39;101603.97;5095701;28;20075;-62
2022/08/02 10:00:11;;;;;;;2.85;2.65;;;25.70;99.90;;;26.06;58.36;101578.69;5095601;28;20147;-61
2022/08/02 10:03:06;;;;;;;2.20;2.10;;;25.70;99.90;;;26.12;56.91;101580.16;5095535;28;20399;-61
2022/08/02 10:05:48;;;;;;;2.38;2.20;;;25.70;99.90;;;26.35;58.12;101591.44;5095483;28;20514;-61
2022/08/02 10:08:25;;;;;;;1.85;1.83;;;26.00;99.90;;;26.38;57.75;101584.97;5095385;28;20408;-61
2022/08/02 10:11:00;;;;;;;2.08;2.00;;;26.00;99.90;;;26.28;56.71;101587.34;5095474;28;20094;-61
2022/08/02 10:13:31;;;;;;;2.15;2.05;;;25.90;99.90;;;26.11;57.82;101552.19;5095250;28;20051;-61
2022/08/02 10:16:01;;;;;;;1.90;1.80;;;25.90;99.90;;;26.35;58.18;101587.84;5095547;28;20451;-61
2022/08/02 10:18:30;;;;;;;1.80;1.80;;;26.00;99.90;;;26.51;57.13;101591.41;5095308;28;20047;-61
2022/08/02 10:21:14;;;;;;;2.30;2.20;;;26.10;99.90;;;26.59;56.24;101592.72;5095078;28;20054;-61
2022/08/02 10:23:46;;;;;;;2.63;2.42;;;26.30;99.90;;;26.71;55.56;101592.00;5095146;28;20052;-61
2022/08/02 10:26:17;;;;;;;2.00;1.90;;;26.40;99.90;;;26.63;56.12;101571.69;5095032;28;20405;-61
2022/08/02 10:28:49;;;;;;;2.45;2.35;;;26.40;99.90;;;26.70;56.19;101568.53;5095223;28;20067;-61
2022/08/02 10:31:24;;;;;;;1.52;1.52;;;26.40;99.90;;;26.88;55.60;101588.28;5095031;28;20101;-61
2022/08/02 10:33:54;;;;;;;1.70;1.70;;;26.50;99.90;;;26.86;55.75;101586.63;5076481;28;20048;-61
2022/08/02 10:36:26;;;;;;;1.67;1.67;;;26.50;99.90;;;26.89;55.80;101583.75;5094908;28;20059;-61